• Join FlightAware (Why Join?)
  • Login
  • US Flag 
03:04AM EDT


 

Airport Tracker/Info


-or-


 

Live Flight TrackerFlight Track Log ✈ SWA3228 ✈ 01-May-2013 ✈ KMCO - KBHM

Flight Track Log - Related Links

Times and Time Zones

All times are in EDT time to prevent confusion due to time zone crossing. See the SWA3228 flight status page for this flight to view local times or setup timezone preferences in your user account.

Time Position Orientation Groundspeed Altitude Reporting Facility
EDT Latitude Longitude Course Direction KTS MPH feet Rate Location/Type
08:18AM 28.4333 -81.3000 336° Northwest 153 176 700  Level Orlando TRACON
08:19AM 28.4667 -81.3167 336° Northwest 206 237 3,000 3,000 Climbing Orlando TRACON
08:20AM 28.5333 -81.3333 348° North 225 259 6,100 1,920 Climbing Orlando TRACON
08:21AM 28.5444 -81.4275 278° West 247 284 8,000 1,380 Climbing Jacksonville Center
08:22AM 28.5161 -81.5106 249° West 260 299 9,800 3,060 Climbing Jacksonville Center
08:24AM 28.5036 -81.7186 266° West 319 367 17,300 3,480 Climbing Jacksonville Center
08:25AM 28.5003 -81.8272 268° West 337 388 20,400 2,940 Climbing Jacksonville Center
08:26AM 28.4928 -81.9478 266° West 366 421 23,300 2,580 Climbing Jacksonville Center
08:27AM 28.4875 -82.0731 267° West 389 448 25,600 2,400 Climbing Jacksonville Center
08:28AM 28.5111 -82.2003 282° West 411 473 28,100 2,520 Climbing Jacksonville Center
08:29AM 28.5472 -82.3325 287° West 422 486 30,700 2,820 Climbing Jacksonville Center
08:30AM 28.5833 -82.4600 288° West 428 493 33,800 2,640 Climbing Jacksonville Center
08:31AM 28.6211 -82.5803 290° West 423 487 36,000 2,100 Climbing Jacksonville Center
08:32AM 28.6964 -82.6725 313° West 407 468 38,000 960 Climbing Jacksonville Center
08:33AM 28.7925 -82.7481 325° Northwest 403 464 38,000  Level Jacksonville Center
08:34AM 28.8908 -82.8261 325° Northwest 415 478 38,000  Level Jacksonville Center
08:35AM 28.9867 -82.8997 326° Northwest 421 484 38,000  Level Jacksonville Center
08:36AM 29.0828 -82.9758 325° Northwest 421 484 38,000  Level Jacksonville Center
08:37AM 29.1786 -83.0542 324° Northwest 421 484 38,000  Level Jacksonville Center
08:38AM 29.2767 -83.1331 325° Northwest 426 490 38,000  Level Jacksonville Center
08:39AM 29.3706 -83.2119 324° Northwest 431 496 38,000  Level Jacksonville Center
08:40AM 29.4706 -83.2908 326° Northwest 431 496 38,000  Level Jacksonville Center
08:41AM 29.5661 -83.3725 323° Northwest 431 496 38,000  Level Jacksonville Center
08:42AM 29.6681 -83.4519 326° Northwest 431 496 38,000  Level Jacksonville Center
08:43AM 29.7658 -83.5339 324° Northwest 431 496 38,000  Level Jacksonville Center
08:44AM 29.8658 -83.6136 325° Northwest 431 496 38,000  Level Jacksonville Center
08:45AM 29.9736 -83.7031 324° Northwest 431 496 38,000  Level Jacksonville Center
08:46AM 30.0733 -83.7831 325° Northwest 431 496 38,000  Level Jacksonville Center
08:47AM 30.1731 -83.8656 324° Northwest 431 496 38,000  Level Jacksonville Center
08:48AM 30.2725 -83.9483 324° Northwest 431 496 38,000  Level Jacksonville Center
08:49AM 30.3722 -84.0292 325° Northwest 431 496 38,000  Level Jacksonville Center
08:50AM 30.4694 -84.1122 324° Northwest 431 496 38,000  Level Jacksonville Center
08:51AM 30.5667 -84.1978 323° Northwest 436 502 38,000  Level Jacksonville Center
08:52AM 30.6661 -84.2764 326° Northwest 431 496 38,000  Level Jacksonville Center
08:53AM 30.7550 -84.3528 324° Northwest 431 496 38,000  Level Jacksonville Center
08:54AM 30.8564 -84.4389 324° Northwest 431 496 38,000  Level Jacksonville Center
08:55AM 30.9533 -84.5228 323° Northwest 436 502 38,000  Level Jacksonville Center
08:56AM 31.0547 -84.6072 324° Northwest 436 502 38,000  Level Jacksonville Center
08:57AM 31.1536 -84.6914 324° Northwest 436 502 38,000 -300 Level Jacksonville Center
08:58AM 31.2547 -84.7783 324° Northwest 441 507 37,400 -900 Descending Jacksonville Center
08:59AM 31.3539 -84.8583 325° Northwest 441 507 36,300 -1,080 Descending Jacksonville Center
09:02AM 31.5714 -85.0456 324° Northwest 446 513 34,000 -720 Descending Atlanta Center
09:03AM 31.6647 -85.1294 323° Northwest 434 499 34,000 -300 Level Atlanta Center
09:04AM 31.7722 -85.2164 325° Northwest 429 494 33,500 -780 Descending Atlanta Center
09:05AM 31.8697 -85.3008 324° Northwest 429 494 32,500 -1,020 Descending Atlanta Center
09:06AM 31.9667 -85.3853 324° Northwest 429 494 31,500 -960 Descending Atlanta Center
09:07AM 32.0661 -85.4703 324° Northwest 429 494 30,600 -960 Descending Atlanta Center
09:08AM 32.1672 -85.5553 325° Northwest 434 499 29,600 -1,020 Descending Atlanta Center
09:09AM 32.2642 -85.6428 323° Northwest 434 499 28,600 -840 Descending Atlanta Center
09:10AM 32.3614 -85.7258 324° Northwest 434 499 28,000 -300 Descending Atlanta Center
09:11AM 32.4436 -85.8061 321° Northwest 434 499 28,000 -360 Level Atlanta Center
09:12AM 32.5531 -85.8944 326° Northwest 429 494 27,300 -1,080 Descending Atlanta Center
09:13AM 32.6456 -85.9778 323° Northwest 429 494 25,900 -1,560 Descending Atlanta Center
09:14AM 32.7178 -86.0411 324° Northwest 423 487 24,200 -2,100 Descending Atlanta Center
09:15AM 32.8267 -86.1400 323° Northwest 410 472 21,800 -2,520 Descending Atlanta Center
09:16AM 32.9150 -86.2189 323° Northwest 410 472 19,200 -2,460 Descending Atlanta Center
09:17AM 33.0014 -86.2953 323° Northwest 403 464 16,900 -2,520 Descending Atlanta Center
09:17AM 33.0567 -86.3536 319° Northwest 379 436 15,000 -2,400 Descending Atlanta Center
09:18AM 33.0856 -86.3719 332° Northwest 398 458 14,500 -2,280 Descending Atlanta Center
09:18AM 33.1408 -86.4278 320° Northwest 368 423 12,700 -2,400 Descending Atlanta Center
09:19AM 33.1656 -86.4458 329° Northwest 379 436 12,100 -1,980 Descending Atlanta Center
09:19AM 33.2125 -86.4894 322° Northwest 354 407 10,900 -1,500 Descending Atlanta Center
09:20AM 33.2414 -86.5125 326° Northwest 362 417 10,600 -1,140 Descending Atlanta Center
09:21AM 33.3092 -86.5717 324° Northwest 331 381 9,400 -1,320 Descending Atlanta Center
09:21AM 33.3539 -86.6178 319° Northwest 283 326 8,300 -1,740 Descending Atlanta Center
09:22AM 33.3747 -86.6283 337° Northwest 304 350 7,700 -2,040 Descending Atlanta Center
09:22AM 33.4236 -86.6797 319° Northwest 287 330 6,300 -1,740 Descending Atlanta Center
09:23AM 33.4400 -86.6900 332° Northwest 292 336 6,000 -420 Descending Atlanta Center
09:23AM 33.4531 -86.7650 282° West 286 329 5,900 -540 Descending Atlanta Center
09:24AM 33.4531 -86.8647 270° West 275 316 5,000 -660 Descending Atlanta Center
09:25AM 33.4119 -86.9206 229° Southwest 225 259 4,600 -660 Descending Atlanta Center
09:26AM 33.4211 -86.9806 280° West 227 261 3,800 -840 Descending Atlanta Center
09:27AM 33.4531 -86.9444 43° Northeast 177 204 2,900 -600 Descending Atlanta Center
09:28AM 33.4836 -86.8981 52° Northeast 165 190 2,600 -300 Descending Atlanta Center
09:29AM 33.5094 -86.8542 55° Northeast 154 177 2,300 -540 Descending Atlanta Center
09:30AM 33.5269 -86.8197 59° Northeast 124 143 1,600 -720 Descending Atlanta Center
09:31AM 33.5444 -86.7881 56° Northeast 118 136 1,000 -660 Descending Atlanta Center
09:33AM 33.5639 -86.7523 320° Northwest  Level Estimated
09:40AM 33.5639 -86.7523 140° Southeast  Level Estimated